Time;durP1;ratioP1;P1;durP2;ratioP2;P2;SDS_P1;SDS_P2;PMS_P1;PMS_P2;Temp;Humidity;BMP_temperature;BMP_pressure;BME280_temperature;BME280_humidity;BME280_pressure;Samples;Min_cycle;Max_cycle;Signal;HPM_P1;HPM_P2
2021/04/02 00:00:51;;;;;;;0.30;0.30;;;12.80;68.50;;;;;;4960299;28;20038;-86
2021/04/02 00:03:22;;;;;;;0.00;0.00;;;12.80;68.30;;;;;;4966710;28;20030;-86
2021/04/02 00:05:49;;;;;;;0.10;0.10;;;12.80;67.90;;;;;;4959649;28;20099;-86
2021/04/02 00:08:14;;;;;;;;;;;12.70;68.10;;;;;;4968710;28;20027;-86
2021/04/02 00:10:43;;;;;;;0.10;0.10;;;12.60;69.60;;;;;;4963476;28;20283;-86
2021/04/02 00:13:09;;;;;;;0.10;0.10;;;12.60;68.70;;;;;;4968487;28;20090;-86
2021/04/02 00:15:35;;;;;;;0.20;0.20;;;12.40;69.60;;;;;;4969658;28;20030;-86
2021/04/02 00:18:00;;;;;;;0.10;0.10;;;12.40;70.00;;;;;;4958658;28;20185;-86
2021/04/02 00:20:26;;;;;;;0.08;0.08;;;12.30;70.00;;;;;;4962797;28;20550;-86
2021/04/02 00:22:52;;;;;;;0.73;0.40;;;12.20;70.10;;;;;;4963399;28;20054;-86
2021/04/02 00:25:18;;;;;;;0.65;0.65;;;12.20;70.90;;;;;;4965399;28;20050;-86
2021/04/02 00:27:43;;;;;;;0.38;0.38;;;12.20;71.00;;;;;;4967769;28;20542;-87
2021/04/02 00:30:20;;;;;;;1.17;1.10;;;12.20;71.20;;;;;;4961156;28;20058;-86
2021/04/02 00:32:47;;;;;;;0.52;0.40;;;12.20;71.50;;;;;;4966427;28;20118;-86
2021/04/02 00:35:13;;;;;;;0.10;0.10;;;12.00;71.40;;;;;;4955427;28;20502;-86
2021/04/02 00:37:40;;;;;;;0.40;0.40;;;12.00;72.20;;;;;;4961557;28;20038;-86
2021/04/02 00:40:21;;;;;;;1.90;0.43;;;11.90;71.90;;;;;;4969556;28;20053;-86
2021/04/02 00:42:48;;;;;;;1.33;0.80;;;11.90;72.00;;;;;;4960758;28;20038;-86
2021/04/02 00:45:19;;;;;;;0.20;0.20;;;12.00;72.00;;;;;;4963510;28;20391;-86
2021/04/02 00:47:46;;;;;;;0.55;0.55;;;11.90;72.30;;;;;;4960891;28;20494;-86
2021/04/02 00:50:13;;;;;;;;;;;11.80;73.20;;;;;;4965921;28;20397;-87
2021/04/02 00:52:38;;;;;;;4.28;0.82;;;11.80;72.80;;;;;;4973582;28;19921;-87
2021/04/02 00:55:05;;;;;;;2.50;1.30;;;11.80;73.60;;;;;;4973195;28;20026;-87
2021/04/02 00:57:33;;;;;;;0.20;0.20;;;11.70;73.20;;;;;;4968914;28;20022;-87
2021/04/02 00:59:59;;;;;;;1.25;0.75;;;11.80;73.40;;;;;;4972873;28;20058;-86
2021/04/02 01:02:26;;;;;;;0.20;0.20;;;11.60;74.10;;;;;;4972529;28;20038;-86
2021/04/02 01:04:51;;;;;;;0.10;0.10;;;11.60;73.80;;;;;;4970831;28;20585;-87
2021/04/02 01:07:17;;;;;;;0.00;0.00;;;11.30;74.40;;;;;;4972856;28;20098;-87
2021/04/02 01:09:44;;;;;;;0.22;0.22;;;11.40;75.30;;;;;;4974221;28;20038;-87
2021/04/02 01:12:10;;;;;;;;;;;11.30;75.80;;;;;;4961562;28;20023;-87
2021/04/02 01:14:36;;;;;;;0.20;0.20;;;11.20;75.50;;;;;;4967214;28;19912;-87
2021/04/02 01:17:02;;;;;;;0.47;0.47;;;11.00;75.90;;;;;;4966877;28;20038;-85
2021/04/02 01:19:35;;;;;;;1.10;0.90;;;11.00;75.90;;;;;;4964251;28;20062;-86
2021/04/02 01:22:12;;;;;;;0.28;0.28;;;10.80;76.40;;;;;;4967983;28;20038;-86
2021/04/02 01:24:50;;;;;;;6.53;1.73;;;10.80;77.00;;;;;;4961436;28;20122;-86
2021/04/02 01:27:53;;;;;;;0.15;0.15;;;10.90;76.80;;;;;;4964479;28;20031;-86
2021/04/02 01:30:19;;;;;;;0.10;0.10;;;10.80;78.00;;;;;;4967722;28;20414;-86
2021/04/02 01:32:48;;;;;;;0.10;0.10;;;11.00;77.20;;;;;;4964201;28;20022;-86
2021/04/02 01:35:22;;;;;;;17.02;1.63;;;10.90;76.70;;;;;;4972852;28;20034;-86
2021/04/02 01:37:56;;;;;;;0.10;0.10;;;11.00;77.60;;;;;;4968760;28;20117;-86
2021/04/02 01:40:25;;;;;;;0.20;0.20;;;11.10;76.90;;;;;;4972258;28;20026;-87
2021/04/02 01:42:52;;;;;;;0.10;0.10;;;11.00;76.90;;;;;;4968976;28;20066;-86
2021/04/02 01:45:18;;;;;;;0.10;0.10;;;11.00;77.00;;;;;;4956223;28;20031;-86
2021/04/02 01:47:44;;;;;;;0.17;0.05;;;11.00;76.60;;;;;;4969370;28;20506;-87
2021/04/02 01:50:17;;;;;;;0.10;0.10;;;11.00;76.30;;;;;;4958892;28;20058;-87
2021/04/02 01:52:45;;;;;;;0.00;0.00;;;10.80;77.30;;;;;;4965462;28;20858;-87
2021/04/02 01:55:13;;;;;;;0.20;0.20;;;10.80;78.20;;;;;;4964812;28;20394;-87
2021/04/02 01:57:40;;;;;;;0.63;0.63;;;10.90;78.10;;;;;;4968354;28;20027;-86
2021/04/02 02:00:19;;;;;;;1.50;1.10;;;10.60;77.70;;;;;;4963036;28;20030;-86
2021/04/02 02:02:45;;;;;;;0.38;0.35;;;10.50;79.60;;;;;;4962104;28;20034;-86
2021/04/02 02:05:12;;;;;;;0.57;0.40;;;10.60;79.40;;;;;;4961560;28;20023;-86
2021/04/02 02:07:42;;;;;;;0.52;0.52;;;10.60;78.30;;;;;;4964314;28;20058;-86
2021/04/02 02:10:10;;;;;;;0.52;0.40;;;10.60;78.90;;;;;;4962113;28;20041;-86
2021/04/02 02:12:40;;;;;;;0.10;0.10;;;10.60;78.00;;;;;;4963898;28;20018;-86
2021/04/02 02:15:11;;;;;;;0.10;0.10;;;10.50;79.50;;;;;;4969973;28;20093;-86
2021/04/02 02:17:39;;;;;;;0.80;0.68;;;10.30;80.20;;;;;;4969820;28;20023;-86
2021/04/02 02:20:08;;;;;;;0.10;0.10;;;10.60;78.20;;;;;;4964024;28;20506;-86
2021/04/02 02:22:35;;;;;;;0.10;0.10;;;11.00;77.50;;;;;;4972365;28;20117;-86
2021/04/02 02:25:04;;;;;;;0.35;0.28;;;11.00;77.30;;;;;;4967962;28;20106;-86
2021/04/02 02:27:30;;;;;;;0.10;0.10;;;11.10;76.30;;;;;;4972222;28;20027;-86
2021/04/02 02:29:56;;;;;;;0.17;0.17;;;10.90;77.20;;;;;;4972689;28;20058;-86
2021/04/02 02:32:22;;;;;;;0.10;0.10;;;10.70;78.90;;;;;;4968424;28;20065;-86
2021/04/02 02:34:48;;;;;;;0.00;0.00;;;10.70;77.90;;;;;;4963554;28;20094;-87
2021/04/02 02:37:14;;;;;;;0.40;0.40;;;10.90;77.80;;;;;;4970263;28;20401;-86
2021/04/02 02:39:41;;;;;;;0.35;0.35;;;10.90;77.90;;;;;;4966323;28;20074;-86
2021/04/02 02:42:08;;;;;;;0.47;0.45;;;11.00;77.20;;;;;;4963229;28;20092;-86
2021/04/02 02:44:35;;;;;;;0.13;0.13;;;10.70;77.30;;;;;;4962511;28;20121;-86
2021/04/02 02:47:05;;;;;;;0.80;0.60;;;10.70;78.00;;;;;;4961936;28;20023;-86
2021/04/02 02:49:33;;;;;;;0.15;0.15;;;10.70;78.60;;;;;;4966138;28;20033;-86
2021/04/02 02:52:00;;;;;;;0.52;0.50;;;10.40;79.90;;;;;;4959264;28;20027;-86
2021/04/02 02:54:29;;;;;;;0.00;0.00;;;10.60;78.60;;;;;;4962244;28;20110;-86
2021/04/02 02:56:58;;;;;;;0.10;0.10;;;10.80;78.10;;;;;;4955354;28;20510;-86
2021/04/02 02:59:26;;;;;;;0.43;0.43;;;10.70;78.40;;;;;;4970170;28;20046;-86
2021/04/02 03:01:53;;;;;;;0.10;0.10;;;10.60;79.60;;;;;;4955756;28;20113;-86
2021/04/02 03:04:21;;;;;;;0.03;0.03;;;10.50;80.90;;;;;;4959863;28;20041;-86
2021/04/02 03:06:47;;;;;;;1.45;0.43;;;10.40;80.10;;;;;;4965177;28;20047;-86
2021/04/02 03:09:16;;;;;;;0.17;0.17;;;10.50;79.90;;;;;;4969076;28;20038;-86
2021/04/02 03:11:43;;;;;;;0.20;0.20;;;10.60;80.60;;;;;;4967142;28;20039;-85
2021/04/02 03:14:14;;;;;;;0.50;0.50;;;10.50;80.20;;;;;;4963691;28;20495;-86
2021/04/02 03:16:47;;;;;;;0.55;0.55;;;10.50;80.60;;;;;;4967708;28;20478;-86
2021/04/02 03:19:16;;;;;;;0.13;0.13;;;10.30;80.70;;;;;;4968288;28;20041;-85
2021/04/02 03:21:43;;;;;;;0.22;0.22;;;10.30;80.90;;;;;;4966039;28;20557;-86
2021/04/02 03:24:10;;;;;;;0.80;0.80;;;10.00;82.20;;;;;;4958883;28;20027;-85
2021/04/02 03:26:37;;;;;;;7.28;0.98;;;10.20;81.40;;;;;;4959200;28;20098;-85
2021/04/02 03:29:04;;;;;;;0.82;0.52;;;10.00;83.10;;;;;;4966073;28;20038;-85
2021/04/02 03:31:35;;;;;;;0.88;0.85;;;9.90;83.00;;;;;;4964673;28;20391;-86
2021/04/02 03:34:01;;;;;;;3.50;0.70;;;10.20;82.10;;;;;;4964724;28;20475;-86
2021/04/02 03:36:30;;;;;;;0.20;0.20;;;10.00;83.10;;;;;;4970507;28;20070;-86
2021/04/02 03:38:57;;;;;;;0.15;0.15;;;9.90;82.80;;;;;;4967870;28;20483;-86
2021/04/02 03:41:30;;;;;;;0.50;0.50;;;10.20;82.00;;;;;;4970518;28;20110;-85
2021/04/02 03:43:57;;;;;;;0.98;0.82;;;10.20;82.30;;;;;;4970374;28;20038;-86
2021/04/02 03:46:25;;;;;;;0.28;0.25;;;10.10;82.50;;;;;;4968705;28;20081;-86
2021/04/02 03:48:55;;;;;;;0.75;0.73;;;9.80;84.60;;;;;;4960859;28;20031;-87
2021/04/02 03:51:24;;;;;;;0.00;0.00;;;9.70;85.20;;;;;;4963689;28;20395;-86
2021/04/02 03:54:03;;;;;;;0.10;0.10;;;9.60;84.00;;;;;;4965845;28;20054;-86
2021/04/02 03:56:32;;;;;;;0.15;0.15;;;9.70;85.20;;;;;;4971694;28;20023;-86
2021/04/02 03:58:59;;;;;;;0.20;0.20;;;9.60;85.20;;;;;;4961110;28;20019;-86
2021/04/02 04:01:28;;;;;;;0.10;0.10;;;9.40;85.60;;;;;;4972822;28;20031;-87
2021/04/02 04:03:57;;;;;;;0.57;0.57;;;9.30;86.30;;;;;;4970667;28;20043;-86
2021/04/02 04:06:24;;;;;;;0.17;0.17;;;9.00;87.50;;;;;;4954827;28;20499;-86
2021/04/02 04:08:56;;;;;;;1.25;1.13;;;9.40;86.30;;;;;;4967084;28;20082;-87
2021/04/02 04:11:25;;;;;;;0.50;0.50;;;9.60;85.50;;;;;;4963490;28;20881;-86
2021/04/02 04:13:54;;;;;;;0.70;0.63;;;9.60;86.20;;;;;;4969709;28;20027;-86
2021/04/02 04:16:22;;;;;;;1.25;1.00;;;9.40;87.10;;;;;;4968652;28;20025;-86
2021/04/02 04:18:53;;;;;;;1.65;0.90;;;9.30;87.60;;;;;;4956271;28;20031;-87
2021/04/02 04:21:20;;;;;;;0.10;0.10;;;9.20;87.30;;;;;;4963977;28;20027;-86
2021/04/02 04:23:47;;;;;;;0.10;0.10;;;8.90;89.50;;;;;;4973564;28;20027;-86
2021/04/02 04:26:14;;;;;;;0.30;0.28;;;8.90;88.50;;;;;;4966440;28;20541;-86
2021/04/02 04:28:41;;;;;;;0.30;0.30;;;8.70;89.20;;;;;;4958540;28;20042;-86
2021/04/02 04:31:08;;;;;;;1.05;0.25;;;8.70;90.00;;;;;;4964820;28;20078;-86
2021/04/02 04:33:36;;;;;;;0.10;0.10;;;8.60;90.20;;;;;;4964062;28;20034;-87
2021/04/02 04:36:06;;;;;;;1.10;1.00;;;8.50;91.00;;;;;;4970304;28;20047;-86
2021/04/02 04:38:33;;;;;;;0.20;0.20;;;8.80;90.40;;;;;;4972741;28;20035;-86
2021/04/02 04:41:00;;;;;;;0.20;0.20;;;8.60;90.50;;;;;;4969041;28;20087;-87
2021/04/02 04:43:26;;;;;;;0.50;0.50;;;8.90;90.10;;;;;;4963092;28;20038;-85
2021/04/02 04:45:53;;;;;;;0.33;0.33;;;8.80;90.20;;;;;;4969721;28;20023;-84
2021/04/02 04:48:19;;;;;;;0.30;0.30;;;8.80;90.50;;;;;;4967362;28;20270;-84
2021/04/02 04:50:45;;;;;;;12.65;2.45;;;8.90;90.20;;;;;;4965959;28;20504;-85
2021/04/02 04:53:25;;;;;;;0.28;0.28;;;9.00;90.40;;;;;;4955876;28;20026;-85
2021/04/02 04:55:53;;;;;;;0.68;0.68;;;9.00;90.00;;;;;;4968772;28;20492;-83
2021/04/02 04:58:21;;;;;;;0.10;0.10;;;9.00;90.20;;;;;;4962318;28;20153;-84
2021/04/02 05:00:50;;;;;;;0.20;0.20;;;9.10;90.00;;;;;;4967177;28;20558;-83
2021/04/02 05:03:21;;;;;;;3.50;1.27;;;9.00;90.20;;;;;;4966172;28;20098;-83
2021/04/02 05:05:51;;;;;;;1.75;0.93;;;8.90;90.20;;;;;;4968117;28;20774;-82
2021/04/02 05:08:22;;;;;;;0.20;0.20;;;8.90;90.30;;;;;;4963999;28;20018;-82
2021/04/02 05:10:51;;;;;;;0.30;0.30;;;8.90;90.40;;;;;;4959617;28;20031;-83
2021/04/02 05:13:20;;;;;;;0.80;0.60;;;8.70;90.90;;;;;;4965082;28;20022;-83
2021/04/02 05:15:47;;;;;;;0.30;0.30;;;8.80;91.00;;;;;;4957599;28;20110;-83
2021/04/02 05:18:14;;;;;;;0.10;0.10;;;8.80;90.50;;;;;;4958637;28;20065;-83
2021/04/02 05:20:42;;;;;;;;;;;8.60;90.90;;;;;;4960640;28;20275;-90
2021/04/02 05:23:14;;;;;;;0.10;0.10;;;8.40;91.70;;;;;;4962821;28;19918;-92
2021/04/02 05:25:40;;;;;;;2.15;0.95;;;8.40;91.50;;;;;;4964314;28;20027;-89
2021/04/02 05:28:07;;;;;;;0.98;0.63;;;8.70;91.60;;;;;;4969442;28;20070;-88
2021/04/02 05:30:35;;;;;;;0.20;0.20;;;9.20;90.70;;;;;;4969761;28;20041;-90
2021/04/02 05:33:01;;;;;;;;;;;9.30;90.30;;;;;;4963226;28;20027;-90
2021/04/02 05:35:26;;;;;;;0.15;0.15;;;8.90;91.00;;;;;;4965622;28;20014;-89
2021/04/02 05:37:52;;;;;;;0.10;0.10;;;8.80;91.30;;;;;;4966274;28;20118;-91
2021/04/02 05:40:19;;;;;;;3.47;0.88;;;8.70;91.60;;;;;;4968653;28;20495;-91
2021/04/02 05:43:08;;;;;;;;;;;8.70;91.60;;;;;;4972612;28;20027;-92
2021/04/02 05:45:37;;;;;;;1.00;0.65;;;9.00;91.50;;;;;;4973083;28;20005;-89
2021/04/02 05:48:08;;;;;;;0.52;0.52;;;9.50;90.90;;;;;;4960009;28;20026;-91
2021/04/02 05:50:37;;;;;;;0.20;0.20;;;9.60;90.50;;;;;;4963022;28;20039;-91
2021/04/02 05:53:08;;;;;;;0.45;0.45;;;9.80;90.80;;;;;;4965911;28;20065;-91
2021/04/02 05:55:40;;;;;;;0.10;0.10;;;10.50;88.80;;;;;;4965616;28;20034;-91
2021/04/02 05:58:08;;;;;;;25.55;0.73;;;10.30;90.50;;;;;;4964399;28;20030;-91
2021/04/02 06:00:37;;;;;;;0.35;0.35;;;10.60;89.80;;;;;;4969844;28;20027;-91
2021/04/02 06:03:05;;;;;;;0.30;0.30;;;10.80;89.20;;;;;;4965661;28;20062;-91
2021/04/02 06:05:32;;;;;;;14.40;1.30;;;11.20;88.20;;;;;;4967874;28;20066;-92
2021/04/02 06:07:59;;;;;;;0.32;0.32;;;11.20;88.80;;;;;;4966968;28;20069;-91
2021/04/02 06:10:26;;;;;;;4.18;0.90;;;11.00;89.20;;;;;;4964405;28;20026;-91
2021/04/02 06:12:56;;;;;;;0.80;0.80;;;11.30;89.00;;;;;;4963579;28;20043;-91
2021/04/02 06:15:22;;;;;;;1.45;1.02;;;11.20;89.60;;;;;;4967532;28;20034;-89
2021/04/02 06:18:07;;;;;;;0.20;0.20;;;11.30;88.20;;;;;;4965259;28;20019;-92
2021/04/02 06:20:35;;;;;;;0.32;0.32;;;11.40;88.30;;;;;;4963445;28;20117;-83
2021/04/02 06:23:12;;;;;;;0.30;0.30;;;11.30;90.00;;;;;;4968182;28;20060;-84
2021/04/02 06:25:39;;;;;;;;;;;11.30;89.70;;;;;;4969037;28;20086;-84
2021/04/02 06:28:24;;;;;;;1.45;1.20;;;11.50;95.90;;;;;;4965107;28;19906;-84
2021/04/02 06:31:00;;;;;;;0.20;0.20;;;11.80;88.20;;;;;;4963942;28;20055;-84
2021/04/02 06:33:49;;;;;;;;;;;11.90;88.70;;;;;;4965025;28;20033;-84
2021/04/02 06:36:26;;;;;;;0.35;0.35;;;12.00;88.80;;;;;;4964989;28;19960;-84
2021/04/02 06:39:00;;;;;;;0.20;0.20;;;12.30;87.50;;;;;;4966096;28;20482;-84
2021/04/02 06:41:28;;;;;;;0.25;0.25;;;12.40;86.70;;;;;;4967781;28;20026;-84
2021/04/02 06:44:00;;;;;;;0.20;0.20;;;12.60;87.00;;;;;;4956864;28;20055;-84
2021/04/02 06:46:32;;;;;;;1.25;0.68;;;13.10;85.80;;;;;;4963506;28;20023;-84
2021/04/02 06:49:20;;;;;;;3.92;0.75;;;13.30;84.70;;;;;;4961865;28;20791;-84
2021/04/02 06:51:52;;;;;;;1.07;0.97;;;13.90;83.00;;;;;;4966358;28;20030;-84
2021/04/02 06:54:27;;;;;;;0.15;0.15;;;14.20;81.90;;;;;;4967422;28;20801;-84
2021/04/02 06:57:07;;;;;;;0.00;0.00;;;14.10;81.80;;;;;;4964660;28;20023;-84
2021/04/02 06:59:34;;;;;;;0.50;0.50;;;14.60;80.60;;;;;;4969308;28;20060;-84
2021/04/02 07:02:01;;;;;;;;;;;15.00;79.40;;;;;;4980369;28;20105;-84
2021/04/02 07:04:27;;;;;;;0.30;0.30;;;14.80;79.50;;;;;;4965120;28;20640;-84
2021/04/02 07:06:54;;;;;;;0.80;0.55;;;15.60;77.70;;;;;;4965599;28;20085;-84
2021/04/02 07:09:22;;;;;;;0.10;0.10;;;15.50;78.40;;;;;;4967132;28;20109;-84
2021/04/02 07:11:53;;;;;;;2.13;1.95;;;15.80;78.90;;;;;;4965323;28;20034;-84
2021/04/02 07:14:19;;;;;;;0.10;0.10;;;16.40;76.00;;;;;;4961672;28;20022;-84
2021/04/02 07:16:47;;;;;;;0.08;0.08;;;16.70;74.30;;;;;;4957723;28;20085;-84
2021/04/02 07:19:15;;;;;;;1.02;0.47;;;16.50;75.60;;;;;;4963271;28;20038;-84
2021/04/02 07:21:42;;;;;;;0.30;0.30;;;16.50;75.60;;;;;;4962237;28;20097;-85
2021/04/02 07:24:08;;;;;;;0.52;0.20;;;16.50;75.70;;;;;;4965674;28;20029;-84
2021/04/02 07:26:35;;;;;;;0.03;0.03;;;17.40;73.40;;;;;;4959024;28;20082;-87
2021/04/02 07:29:02;;;;;;;0.25;0.20;;;17.30;73.00;;;;;;4958433;28;20459;-88
2021/04/02 07:31:30;;;;;;;0.95;0.95;;;17.50;72.00;;;;;;4960263;28;20027;-88
2021/04/02 07:33:57;;;;;;;0.13;0.13;;;18.00;69.30;;;;;;4961142;28;20033;-85
2021/04/02 07:36:25;;;;;;;0.10;0.10;;;18.50;68.10;;;;;;4964437;28;20031;-85
2021/04/02 07:38:52;;;;;;;0.10;0.10;;;18.90;67.80;;;;;;4961790;28;20596;-85
2021/04/02 07:41:24;;;;;;;0.20;0.20;;;18.70;67.80;;;;;;4962948;28;20054;-85
2021/04/02 07:43:55;;;;;;;0.73;0.30;;;18.70;66.50;;;;;;4965271;28;20037;-85
2021/04/02 07:46:30;;;;;;;0.63;0.35;;;18.30;68.70;;;;;;4961370;28;20037;-85
2021/04/02 07:49:04;;;;;;;0.05;0.05;;;18.90;67.30;;;;;;4964437;28;20030;-85
2021/04/02 07:51:46;;;;;;;0.30;0.30;;;18.80;66.90;;;;;;4961599;28;20022;-85
2021/04/02 07:54:35;;;;;;;0.20;0.20;;;19.10;66.60;;;;;;4967205;28;20454;-85
2021/04/02 07:57:11;;;;;;;0.82;0.57;;;19.30;66.20;;;;;;4966305;28;20022;-85
2021/04/02 07:59:47;;;;;;;0.00;0.00;;;20.00;64.00;;;;;;4970649;28;20110;-85
2021/04/02 08:02:27;;;;;;;0.63;0.63;;;20.30;63.00;;;;;;4969155;28;20506;-85
2021/04/02 08:04:56;;;;;;;0.40;0.38;;;20.40;63.20;;;;;;4968411;28;20549;-85
2021/04/02 08:07:42;;;;;;;0.00;0.00;;;21.00;60.60;;;;;;4963761;28;20026;-86
2021/04/02 08:10:10;;;;;;;0.23;0.23;;;20.40;61.40;;;;;;4958962;28;20042;-85
2021/04/02 08:12:36;;;;;;;0.20;0.20;;;20.10;61.80;;;;;;4960638;28;20627;-85
2021/04/02 08:15:08;;;;;;;0.10;0.10;;;20.20;61.00;;;;;;4970722;28;20029;-85
2021/04/02 08:17:35;;;;;;;0.00;0.00;;;20.60;60.80;;;;;;4965637;28;20089;-85
2021/04/02 08:20:16;;;;;;;0.10;0.10;;;21.30;58.90;;;;;;4964686;28;20035;-85
2021/04/02 08:22:51;;;;;;;0.32;0.30;;;20.90;58.30;;;;;;4965776;28;20081;-85
2021/04/02 08:25:22;;;;;;;0.20;0.20;;;20.40;58.60;;;;;;4971529;28;20079;-85
2021/04/02 08:28:21;;;;;;;2.17;0.75;;;20.70;58.50;;;;;;4965160;28;20121;-85
2021/04/02 08:30:57;;;;;;;0.65;0.55;;;21.30;57.10;;;;;;4970797;28;20495;-85
2021/04/02 08:33:27;;;;;;;2.63;0.65;;;21.30;55.00;;;;;;4971371;28;20054;-85
2021/04/02 08:35:58;;;;;;;0.13;0.10;;;21.80;55.30;;;;;;4971248;28;20569;-85
2021/04/02 08:38:25;;;;;;;0.10;0.10;;;21.50;55.60;;;;;;4971175;28;20073;-85
2021/04/02 08:40:55;;;;;;;0.65;0.10;;;22.20;54.80;;;;;;4965620;28;20533;-85
2021/04/02 08:43:27;;;;;;;0.00;0.00;;;23.60;52.00;;;;;;4962702;28;20062;-85
2021/04/02 08:45:53;;;;;;;0.10;0.10;;;23.20;51.60;;;;;;4964902;28;20069;-85
2021/04/02 08:48:21;;;;;;;;;;;22.90;51.30;;;;;;4962659;28;20066;-85
2021/04/02 08:50:48;;;;;;;0.10;0.10;;;23.90;48.30;;;;;;4961887;28;19914;-85
2021/04/02 08:53:15;;;;;;;1.13;0.28;;;23.90;48.10;;;;;;4970053;28;20114;-85
2021/04/02 08:55:48;;;;;;;0.43;0.43;;;23.60;49.00;;;;;;4968884;28;20778;-85
2021/04/02 08:58:24;;;;;;;0.20;0.20;;;24.20;46.90;;;;;;4972545;28;20684;-85
2021/04/02 09:00:54;;;;;;;;;;;24.20;46.20;;;;;;4970605;28;20046;-85
2021/04/02 09:03:22;;;;;;;1.17;0.30;;;23.90;47.90;;;;;;4967954;28;19910;-85
2021/04/02 09:06:05;;;;;;;0.20;0.20;;;24.60;47.40;;;;;;4968392;28;20442;-85
2021/04/02 09:08:37;;;;;;;1.02;0.32;;;25.00;43.60;;;;;;4966121;28;20676;-85
2021/04/02 09:11:14;;;;;;;0.25;0.20;;;25.30;45.40;;;;;;4966441;28;20031;-85
2021/04/02 09:13:43;;;;;;;1.48;0.95;;;25.60;43.60;;;;;;4973115;28;20047;-85
2021/04/02 09:16:14;;;;;;;1.45;0.75;;;26.30;36.40;;;;;;4972464;28;20035;-85
2021/04/02 09:18:55;;;;;;;0.40;0.40;;;26.10;53.20;;;;;;4973120;28;20031;-85
2021/04/02 09:21:24;;;;;;;0.00;0.00;;;26.40;39.10;;;;;;4966772;28;20483;-85
2021/04/02 09:23:51;;;;;;;0.10;0.10;;;26.50;40.30;;;;;;4970885;28;20029;-85
2021/04/02 09:26:17;;;;;;;1.95;1.10;;;27.00;37.90;;;;;;4972048;28;20490;-85
2021/04/02 09:28:44;;;;;;;0.35;0.35;;;27.60;35.50;;;;;;4972641;28;20027;-85
2021/04/02 09:31:22;;;;;;;0.17;0.17;;;27.40;35.10;;;;;;4967564;28;20125;-85
2021/04/02 09:33:53;;;;;;;0.20;0.20;;;29.60;29.10;;;;;;4970038;28;20023;-85
2021/04/02 09:36:20;;;;;;;0.30;0.30;;;28.40;32.20;;;;;;4966427;28;20514;-85
2021/04/02 09:38:47;;;;;;;0.08;0.08;;;29.00;29.90;;;;;;4968892;28;20054;-85
2021/04/02 09:41:15;;;;;;;0.00;0.00;;;29.60;29.20;;;;;;4973129;28;20029;-85
2021/04/02 09:43:49;;;;;;;0.10;0.10;;;30.40;28.10;;;;;;4969884;28;20050;-85
2021/04/02 09:46:28;;;;;;;0.05;0.05;;;30.40;23.50;;;;;;4958940;28;20125;-85
2021/04/02 09:49:05;;;;;;;5.47;1.20;;;32.10;22.90;;;;;;4963353;28;20056;-85
2021/04/02 09:51:35;;;;;;;0.00;0.00;;;31.90;23.60;;;;;;4968502;28;20027;-85
2021/04/02 09:54:01;;;;;;;0.17;0.17;;;32.40;20.50;;;;;;4964201;28;20027;-85
2021/04/02 09:56:27;;;;;;;0.00;0.00;;;33.10;19.70;;;;;;4969507;28;20027;-85
2021/04/02 09:58:53;;;;;;;0.10;0.10;;;33.50;18.80;;;;;;4964419;28;20027;-85
2021/04/02 10:01:19;;;;;;;0.00;0.00;;;34.50;14.80;;;;;;4969939;28;20130;-85
2021/04/02 10:03:45;;;;;;;0.35;0.32;;;34.70;15.70;;;;;;4969906;28;20077;-85
2021/04/02 10:06:11;;;;;;;0.93;0.40;;;33.00;18.10;;;;;;4963313;28;20086;-85
2021/04/02 10:08:37;;;;;;;0.00;0.00;;;34.80;9.00;;;;;;4959873;28;20427;-85
2021/04/02 10:11:03;;;;;;;0.00;0.00;;;36.90;8.50;;;;;;4955127;28;20055;-85
2021/04/02 10:13:32;;;;;;;0.15;0.15;;;36.00;7.30;;;;;;4966263;28;20023;-85
2021/04/02 10:15:58;;;;;;;0.00;0.00;;;35.50;9.60;;;;;;4966097;28;20092;-85
2021/04/02 10:18:24;;;;;;;0.00;0.00;;;33.70;12.60;;;;;;4965910;28;20081;-85
2021/04/02 10:20:50;;;;;;;0.00;0.00;;;32.50;16.40;;;;;;4956515;28;20446;-85
2021/04/02 10:23:17;;;;;;;0.00;0.00;;;32.40;15.60;;;;;;4965394;28;20662;-85
2021/04/02 10:25:43;;;;;;;0.00;0.00;;;33.50;9.80;;;;;;4972702;28;20529;-85
2021/04/02 10:28:09;;;;;;;0.10;0.07;;;32.80;15.40;;;;;;4969393;28;20065;-85
2021/04/02 10:30:45;;;;;;;0.83;0.30;;;32.50;15.80;;;;;;4966403;28;20066;-85
2021/04/02 10:33:10;;;;;;;0.15;0.15;;;34.50;11.50;;;;;;4960217;28;20030;-85
2021/04/02 10:35:37;;;;;;;0.00;0.00;;;36.10;8.30;;;;;;4962629;28;20019;-85
2021/04/02 10:38:03;;;;;;;0.17;0.17;;;35.40;8.40;;;;;;4966284;28;20494;-85
2021/04/02 10:40:29;;;;;;;0.63;0.52;;;34.10;12.10;;;;;;4971650;28;20031;-85
2021/04/02 10:42:56;;;;;;;0.00;0.00;;;34.20;11.60;;;;;;4967044;28;20027;-86
2021/04/02 10:45:22;;;;;;;0.10;0.10;;;35.40;4.90;;;;;;4969475;28;20259;-87
2021/04/02 10:47:48;;;;;;;1.40;1.13;;;33.90;11.80;;;;;;4971058;28;20458;-85
2021/04/02 10:50:14;;;;;;;0.20;0.20;;;34.20;9.50;;;;;;4964966;28;20514;-86
2021/04/02 10:52:40;;;;;;;0.10;0.10;;;35.00;7.70;;;;;;4966611;28;20061;-86
2021/04/02 10:55:06;;;;;;;0.52;0.47;;;34.80;6.00;;;;;;4962170;28;20023;-86
2021/04/02 10:57:32;;;;;;;0.10;0.10;;;36.40;3.90;;;;;;4970187;28;20022;-86
2021/04/02 11:00:00;;;;;;;0.10;0.10;;;34.40;8.50;;;;;;4968759;28;20112;-86
2021/04/02 11:02:25;;;;;;;0.05;0.05;;;35.20;6.30;;;;;;4946357;28;20039;-86
2021/04/02 11:04:51;;;;;;;0.20;0.20;;;32.80;10.20;;;;;;4963189;28;20023;-86
2021/04/02 11:07:17;;;;;;;0.43;0.20;;;33.50;10.90;;;;;;4972064;28;20270;-87
2021/04/02 11:09:43;;;;;;;0.47;0.47;;;34.60;7.70;;;;;;4968988;28;20026;-86
2021/04/02 11:12:09;;;;;;;0.00;0.00;;;32.50;6.30;;;;;;4960456;28;20051;-86
2021/04/02 11:14:35;;;;;;;0.28;0.28;;;34.30;7.30;;;;;;4969199;28;20273;-86
2021/04/02 11:17:01;;;;;;;0.47;0.47;;;35.70;6.40;;;;;;4966943;28;20034;-85
2021/04/02 11:19:30;;;;;;;0.10;0.10;;;34.90;7.70;;;;;;4964891;28;20034;-85
2021/04/02 11:21:58;;;;;;;0.00;0.00;;;35.60;8.30;;;;;;4966125;28;20046;-85
2021/04/02 11:24:24;;;;;;;0.22;0.20;;;36.70;5.10;;;;;;4964220;28;20092;-86
2021/04/02 11:26:50;;;;;;;3.22;0.32;;;33.40;10.50;;;;;;4969120;28;20446;-85
2021/04/02 11:29:17;;;;;;;0.22;0.22;;;33.20;9.90;;;;;;4961646;28;20439;-85
2021/04/02 11:31:42;;;;;;;;;;;35.10;7.90;;;;;;4962561;28;20043;-85
2021/04/02 11:34:09;;;;;;;0.45;0.25;;;34.90;6.70;;;;;;4963577;28;19906;-84
2021/04/02 11:36:35;;;;;;;;;;;33.90;9.10;;;;;;4967252;28;20829;-85
2021/04/02 11:39:01;;;;;;;0.00;0.00;;;34.40;9.00;;;;;;4963903;28;19957;-85
2021/04/02 11:41:27;;;;;;;4.60;1.40;;;29.60;11.40;;;;;;4966585;28;20046;-85
2021/04/02 11:43:52;;;;;;;1.13;0.73;;;27.60;19.40;;;;;;4966591;28;20023;-85
2021/04/02 11:46:21;;;;;;;0.00;0.00;;;26.90;20.40;;;;;;4964985;28;20050;-85
2021/04/02 11:48:49;;;;;;;0.70;0.35;;;26.30;23.90;;;;;;4963979;28;20038;-85
2021/04/02 11:51:15;;;;;;;0.00;0.00;;;26.10;23.20;;;;;;4962533;28;20030;-85
2021/04/02 11:53:43;;;;;;;0.98;0.10;;;26.30;24.20;;;;;;4969328;28;20078;-85
2021/04/02 11:56:10;;;;;;;0.00;0.00;;;26.10;23.60;;;;;;4962858;28;20054;-85
2021/04/02 11:58:36;;;;;;;1.73;0.20;;;26.20;24.40;;;;;;4960105;28;20211;-85
2021/04/02 12:01:02;;;;;;;0.10;0.10;;;25.90;23.30;;;;;;4966702;28;20027;-85
2021/04/02 12:03:27;;;;;;;0.00;0.00;;;26.00;23.80;;;;;;4969055;28;20034;-84
2021/04/02 12:05:53;;;;;;;0.95;0.35;;;25.70;23.30;;;;;;4967391;28;20388;-84
2021/04/02 12:08:19;;;;;;;0.10;0.10;;;25.30;24.50;;;;;;4957615;28;20037;-84
2021/04/02 12:10:45;;;;;;;0.10;0.10;;;25.40;33.90;;;;;;4969472;28;20124;-85
2021/04/02 12:13:11;;;;;;;0.53;0.50;;;26.00;24.90;;;;;;4969985;28;20497;-84
2021/04/02 12:15:37;;;;;;;0.20;0.20;;;26.00;23.70;;;;;;4968795;28;20277;-84
2021/04/02 12:18:05;;;;;;;0.57;0.52;;;25.30;24.20;;;;;;4967763;28;20058;-84
2021/04/02 12:20:31;;;;;;;0.43;0.43;;;25.40;25.00;;;;;;4961875;28;20023;-84
2021/04/02 12:22:57;;;;;;;;;;;25.40;24.40;;;;;;4961060;28;20450;-85
2021/04/02 12:25:23;;;;;;;2.08;0.45;;;25.20;24.00;;;;;;4967634;28;19910;-85
2021/04/02 12:27:49;;;;;;;0.20;0.20;;;25.00;24.60;;;;;;4968467;28;20035;-85
2021/04/02 12:30:17;;;;;;;0.45;0.22;;;25.40;24.60;;;;;;4964267;28;20503;-84
2021/04/02 12:32:43;;;;;;;0.10;0.10;;;25.40;24.60;;;;;;4968286;28;20053;-85
2021/04/02 12:35:11;;;;;;;;;;;25.20;24.60;;;;;;4968661;28;20042;-85
2021/04/02 12:37:37;;;;;;;12.93;0.60;;;25.30;25.10;;;;;;4961545;28;19911;-85
2021/04/02 12:40:10;;;;;;;6.38;0.43;;;25.40;24.80;;;;;;4971441;28;20037;-85
2021/04/02 12:42:35;;;;;;;0.98;0.63;;;25.30;24.70;;;;;;4968039;28;20883;-85
2021/04/02 12:45:02;;;;;;;0.00;0.00;;;25.20;24.80;;;;;;4972795;28;20033;-85
2021/04/02 12:47:27;;;;;;;0.00;0.00;;;25.10;25.10;;;;;;4968226;28;20113;-85
2021/04/02 12:49:53;;;;;;;0.07;0.07;;;25.20;24.70;;;;;;4971695;28;20125;-85
2021/04/02 12:52:19;;;;;;;0.10;0.10;;;25.50;23.80;;;;;;4967252;28;20038;-85
2021/04/02 12:54:44;;;;;;;0.10;0.10;;;25.30;24.80;;;;;;4971146;28;20041;-85
2021/04/02 12:57:10;;;;;;;0.00;0.00;;;25.30;24.70;;;;;;4972552;28;20061;-85
2021/04/02 12:59:36;;;;;;;0.10;0.10;;;25.60;24.20;;;;;;4964929;28;20177;-85
2021/04/02 13:02:02;;;;;;;0.57;0.43;;;25.50;23.80;;;;;;4965718;28;20089;-85